Terminal Aerodrome Forecast
Issued by NWS Jacksonville, FL

Home | Current Version | Previous Version | Text Only | Print | Product List | Glossary On
Versions: 1 2 3 4 5 6 7 8 9 10 11 12 13 14 15 16 17 18 19 20 21 22 23 24 25 26
000
FTUS42 KJAX 280529
TAFSSI
TAF
KSSI 280529Z 2806/2906 09006KT P6SM VCSH SCT020 BKN035
     FM281000 07009KT P6SM VCTS SCT020 BKN035CB
     FM281600 08012G18KT P6SM VCTS SCT020 BKN035CB
     FM282200 08010KT P6SM VCSH SCT020 BKN035=

USA.gov is the U.S. government's official web portal to all federal, state and local government web resources and services.